Torresdale South, Pennsylvania
Current Conditions -  °F | °C
As of 6:54 AM on Monday 24 Nov 2014 (Local Time) from KPNE Reporting Station
Overcast Overcast  
Wind Chill: 66°   Ceiling: 1100
Heat Index: 66°   Visibility: 10mi
Dew Point: 60°   Wind: 12mph
Humidity: 81%   Direction: 190°S
Pressure: 29.7"   Gusts: 17mph
Location:  40.0685°N, 75.0042°W
Report Text: KPNE 241154Z AUTO 19010G15KT 160V230 10SM OVC011 19/16 A2970 RMK AO2 RAB1056E15 SLP056 P0000 60033 70033 T01890156 10194 20133 56006 TSNO
Loading
Personal Weather Stations






























Interactive Weather Map New forecast layout! Learn more

10-Day Weather Forecast

Advertisements
Track Severe Weather on mobile